Westchase, Florida
Current Conditions -  °F | °C
As of 8:53 AM on Friday 31 Oct 2014 (Local Time) from KTPA Reporting Station
Few Clouds Few Clouds  
Wind Chill: 68°   Ceiling: Unl
Heat Index: 68°   Visibility: 10mi
Dew Point: 56°   Wind: 5mph
Humidity: 65%   Direction: 360°N
Pressure: 29.91"   Gusts: NA
Location:  28.0595°N, 82.6106°W
Report Text: KTPA 311253Z 36004KT 10SM FEW075 20/13 A2991 RMK AO2 SLP126 T02000133
Loading
Personal Weather Stations






























Interactive Weather Map
Tropical Storm Tracking
New forecast layout! Learn more

10-Day Weather Forecast

Advertisements
Track Severe Weather on mobile